Time;durP1;ratioP1;P1;durP2;ratioP2;P2;SDS_P1;SDS_P2;PMS_P1;PMS_P2;Temp;Humidity;BMP_temperature;BMP_pressure;BME280_temperature;BME280_humidity;BME280_pressure;Samples;Min_cycle;Max_cycle;Signal;HPM_P1;HPM_P2
2023/05/02 00:02:03;;;;;;;6.18;2.53;;;8.90;80.80;;;;;;5036936;28;20187;-82
2023/05/02 00:04:29;;;;;;;2.50;1.90;;;8.80;81.30;;;;;;5036334;28;20239;-83
2023/05/02 00:06:54;;;;;;;4.13;2.07;;;8.80;81.60;;;;;;5035984;28;20188;-84
2023/05/02 00:09:20;;;;;;;4.03;2.10;;;8.80;82.90;;;;;;5036546;28;20185;-82
2023/05/02 00:11:46;;;;;;;2.97;2.00;;;8.70;83.50;;;;;;5035245;28;20177;-82
2023/05/02 00:14:12;;;;;;;4.88;1.77;;;8.70;83.40;;;;;;5036642;28;20239;-82
2023/05/02 00:16:37;;;;;;;3.30;1.73;;;8.70;84.40;;;;;;5035280;28;20208;-82
2023/05/02 00:19:03;;;;;;;3.60;2.20;;;8.60;84.70;;;;;;5018999;28;20180;-81
2023/05/02 00:21:29;;;;;;;3.37;1.90;;;8.60;85.00;;;;;;5034988;28;20189;-82
2023/05/02 00:23:55;;;;;;;4.47;1.98;;;8.50;87.20;;;;;;5035483;28;20254;-82
2023/05/02 00:26:22;;;;;;;3.88;2.15;;;8.40;88.30;;;;;;5036328;28;20231;-83
2023/05/02 00:28:49;;;;;;;7.43;3.00;;;8.30;89.20;;;;;;5036070;28;20524;-82
2023/05/02 00:31:15;;;;;;;5.57;2.20;;;8.20;90.00;;;;;;5034938;28;20188;-82
2023/05/02 00:33:40;;;;;;;4.00;2.30;;;6.60;89.90;;;;;;5034937;28;20239;-82
2023/05/02 00:36:17;;;;;;;6.13;2.20;;;8.10;91.00;;;;;;5034946;28;20184;-83
2023/05/02 00:38:43;;;;;;;5.10;2.40;;;8.00;91.70;;;;;;5036054;28;20579;-82
2023/05/02 00:41:08;;;;;;;3.57;2.20;;;7.90;92.70;;;;;;5034940;28;20214;-82
2023/05/02 00:43:35;;;;;;;3.83;1.90;;;7.80;94.00;;;;;;5018256;28;20212;-82
2023/05/02 00:46:01;;;;;;;3.30;2.23;;;7.80;95.90;;;;;;5036111;28;20184;-81
2023/05/02 00:48:27;;;;;;;3.33;1.97;;;7.70;95.80;;;;;;5034769;28;20191;-82
2023/05/02 00:50:52;;;;;;;3.83;2.53;;;7.70;94.30;;;;;;5017513;28;20686;-81
2023/05/02 00:53:18;;;;;;;5.80;2.37;;;7.70;94.30;;;;;;5034928;28;20238;-81
2023/05/02 00:55:44;;;;;;;3.70;2.10;;;7.70;93.70;;;;;;5018120;28;20184;-81
2023/05/02 00:58:15;;;;;;;3.60;2.30;;;7.70;93.70;;;;;;5035914;28;20653;-81
2023/05/02 01:00:53;;;;;;;5.97;2.17;;;7.70;94.40;;;;;;5035496;28;20171;-82
2023/05/02 01:03:38;;;;;;;4.10;2.50;;;7.70;94.00;;;;;;5035883;28;20240;-82
2023/05/02 01:06:26;;;;;;;6.90;2.40;;;7.70;94.50;;;;;;5035945;28;20169;-83
2023/05/02 01:09:27;;;;;;;4.87;2.30;;;7.60;94.90;;;;;;5034376;28;20187;-82
2023/05/02 01:12:07;;;;;;;3.33;2.33;;;7.60;95.40;;;;;;5034797;28;20196;-82
2023/05/02 01:14:40;;;;;;;2.97;2.13;;;7.60;95.70;;;;;;5049361;28;20231;-82
2023/05/02 01:17:08;;;;;;;5.60;2.30;;;7.60;96.80;;;;;;5055315;28;20247;-82
2023/05/02 01:19:43;;;;;;;4.60;2.40;;;7.50;97.30;;;;;;5055272;28;20188;-82
2023/05/02 01:22:13;;;;;;;9.60;2.10;;;7.40;98.10;;;;;;5055572;28;20167;-82
2023/05/02 01:25:23;;;;;;;3.47;2.80;;;7.40;97.40;;;;;;5055298;28;20207;-82
2023/05/02 01:28:01;;;;;;;11.27;3.10;;;7.30;98.30;;;;;;5055134;28;20180;-81
2023/05/02 01:30:31;;;;;;;5.53;2.47;;;7.30;99.90;;;;;;5037414;28;20183;-82
2023/05/02 01:33:01;;;;;;;6.70;2.20;;;7.30;99.90;;;;;;5055589;28;20176;-82
2023/05/02 01:35:32;;;;;;;5.30;2.03;;;7.20;99.90;;;;;;5055833;28;20179;-82
2023/05/02 01:38:01;;;;;;;4.97;2.03;;;7.20;99.90;;;;;;5037504;28;20559;-82
2023/05/02 01:40:28;;;;;;;4.10;2.10;;;7.20;99.90;;;;;;5055124;28;20691;-83
2023/05/02 01:42:56;;;;;;;5.37;2.50;;;7.20;99.90;;;;;;5020411;28;20544;-83
2023/05/02 01:45:22;;;;;;;3.43;2.40;;;7.20;99.90;;;;;;5036998;28;20210;-83
2023/05/02 01:47:50;;;;;;;3.83;2.13;;;7.20;99.90;;;;;;5054884;28;20657;-83
2023/05/02 01:50:19;;;;;;;5.30;2.40;;;7.10;99.90;;;;;;5055231;28;20180;-83
2023/05/02 01:52:51;;;;;;;8.43;2.30;;;7.00;99.90;;;;;;5055261;28;20262;-82
2023/05/02 01:55:17;;;;;;;4.40;2.23;;;7.00;99.90;;;;;;5037226;28;20548;-83
2023/05/02 01:57:45;;;;;;;5.53;2.00;;;7.00;99.90;;;;;;5054456;28;20176;-83
2023/05/02 02:00:12;;;;;;;7.90;3.23;;;7.00;99.90;;;;;;5054957;28;20630;-83
2023/05/02 02:02:40;;;;;;;4.53;2.20;;;7.00;99.90;;;;;;5036456;28;20578;-84
2023/05/02 02:05:07;;;;;;;5.97;2.60;;;7.00;99.90;;;;;;5054471;28;20204;-82
2023/05/02 02:07:33;;;;;;;9.57;2.40;;;7.00;99.90;;;;;;5036941;28;20192;-82
2023/05/02 02:10:00;;;;;;;8.83;2.27;;;7.00;99.90;;;;;;5054320;28;20238;-83
2023/05/02 02:12:27;;;;;;;6.17;2.60;;;7.00;99.90;;;;;;5036615;28;20184;-83
2023/05/02 02:14:59;;;;;;;3.83;2.13;;;7.10;99.90;;;;;;5035998;28;20231;-83
2023/05/02 02:17:35;;;;;;;4.67;2.23;;;7.10;99.90;;;;;;5054758;28;20672;-82
2023/05/02 02:20:04;;;;;;;2.20;1.60;;;7.10;99.90;;;;;;5036184;28;20168;-83
2023/05/02 02:22:36;;;;;;;3.67;1.70;;;7.10;99.90;;;;;;5036284;28;20172;-82
2023/05/02 02:25:04;;;;;;;8.43;2.07;;;7.20;99.90;;;;;;5053976;28;20192;-82
2023/05/02 02:27:30;;;;;;;5.17;2.03;;;7.20;99.90;;;;;;5036142;28;20638;-83
2023/05/02 02:29:56;;;;;;;4.13;1.80;;;7.30;99.50;;;;;;5053851;28;20179;-83
2023/05/02 02:32:21;;;;;;;2.53;2.03;;;7.30;99.70;;;;;;5019872;28;20630;-83
2023/05/02 02:34:47;;;;;;;4.57;2.40;;;7.30;99.40;;;;;;5053827;28;20301;-83
2023/05/02 02:37:28;;;;;;;8.93;2.30;;;7.30;99.50;;;;;;5053409;28;20266;-83
2023/05/02 02:40:03;;;;;;;5.40;2.03;;;7.40;99.40;;;;;;5053772;28;20163;-83
2023/05/02 02:43:19;;;;;;;2.87;1.73;;;7.40;99.40;;;;;;5035851;28;20273;-83
2023/05/02 02:46:11;;;;;;;3.50;2.20;;;7.40;99.10;;;;;;4982772;28;20194;-84
2023/05/02 02:48:44;;;;;;;2.07;1.87;;;7.40;99.90;;;;;;5036104;28;20172;-82
2023/05/02 02:51:14;;;;;;;5.23;2.13;;;7.20;99.90;;;;;;5036037;28;20234;-83
2023/05/02 02:54:04;;;;;;;3.30;1.53;;;7.20;99.90;;;;;;5053800;28;20168;-82
2023/05/02 02:56:42;;;;;;;3.87;1.97;;;7.10;99.90;;;;;;5053707;28;20251;-82
2023/05/02 02:59:28;;;;;;;5.23;1.70;;;7.10;99.90;;;;;;5035541;28;20213;-82
2023/05/02 03:02:03;;;;;;;4.13;2.33;;;7.10;99.90;;;;;;5053700;28;20640;-83
2023/05/02 03:04:31;;;;;;;3.00;2.50;;;7.00;99.90;;;;;;5053384;28;20203;-83
2023/05/02 03:06:58;;;;;;;2.53;2.00;;;7.00;99.90;;;;;;5035670;28;20202;-83
2023/05/02 03:09:26;;;;;;;5.27;2.10;;;7.00;99.90;;;;;;5053449;28;20176;-83
2023/05/02 03:11:51;;;;;;;5.83;2.60;;;7.00;99.90;;;;;;5035375;28;20179;-83
2023/05/02 03:14:17;;;;;;;6.70;2.30;;;7.00;99.90;;;;;;5052777;28;20235;-83
2023/05/02 03:16:43;;;;;;;3.80;2.60;;;7.00;99.90;;;;;;5053312;28;20180;-84
2023/05/02 03:19:08;;;;;;;7.87;2.40;;;7.00;99.90;;;;;;5035404;28;20191;-84
2023/05/02 03:21:35;;;;;;;4.73;2.20;;;7.00;99.90;;;;;;5035353;28;20176;-83
2023/05/02 03:24:02;;;;;;;5.20;1.87;;;7.00;99.90;;;;;;5053041;28;20200;-84
2023/05/02 03:26:28;;;;;;;3.10;1.77;;;7.00;99.90;;;;;;5053251;28;20184;-83
2023/05/02 03:28:55;;;;;;;3.53;2.40;;;7.10;99.90;;;;;;5053035;28;20680;-83
2023/05/02 03:31:21;;;;;;;3.03;2.47;;;7.10;99.90;;;;;;5053484;28;20179;-83
2023/05/02 03:33:48;;;;;;;4.23;3.00;;;7.20;99.90;;;;;;5019343;28;20257;-83
2023/05/02 03:36:15;;;;;;;2.00;1.40;;;7.20;99.90;;;;;;5053558;28;20171;-83
2023/05/02 03:38:40;;;;;;;3.03;1.60;;;7.30;99.90;;;;;;5035205;28;20237;-83
2023/05/02 03:41:06;;;;;;;2.37;1.80;;;7.40;99.90;;;;;;5052580;28;20180;-83
2023/05/02 03:43:32;;;;;;;3.60;2.13;;;7.40;99.90;;;;;;5053113;28;20269;-82
2023/05/02 03:46:04;;;;;;;4.00;1.80;;;7.50;99.90;;;;;;5034879;28;20195;-83
2023/05/02 03:48:30;;;;;;;1.53;1.27;;;7.60;99.90;;;;;;5053410;28;20196;-82
2023/05/02 03:50:56;;;;;;;4.40;1.67;;;7.60;99.90;;;;;;5034953;28;20198;-84
2023/05/02 03:53:21;;;;;;;7.37;2.10;;;7.70;99.90;;;;;;5053000;28;20636;-83
2023/05/02 03:55:47;;;;;;;2.53;1.53;;;7.70;99.90;;;;;;5035002;28;20184;-83
2023/05/02 03:58:12;;;;;;;1.70;1.50;;;7.80;99.90;;;;;;5018611;28;20184;-83
2023/05/02 04:00:38;;;;;;;2.77;1.80;;;7.80;99.90;;;;;;5035200;28;20176;-83
2023/05/02 04:03:04;;;;;;;2.17;1.70;;;7.90;99.90;;;;;;5034833;28;20238;-83
2023/05/02 04:05:30;;;;;;;3.50;1.47;;;7.90;99.90;;;;;;5051699;28;20239;-83
2023/05/02 04:07:58;;;;;;;2.37;1.50;;;8.00;99.90;;;;;;5052683;28;20176;-84
2023/05/02 04:10:24;;;;;;;2.03;1.60;;;8.10;99.90;;;;;;5035000;28;20547;-82
2023/05/02 04:12:50;;;;;;;3.50;1.80;;;8.20;99.90;;;;;;5052815;28;20214;-83
2023/05/02 04:15:15;;;;;;;4.73;1.67;;;8.30;99.90;;;;;;5034426;28;20322;-83
2023/05/02 04:17:41;;;;;;;5.03;2.00;;;8.40;99.90;;;;;;5035250;28;20195;-82
2023/05/02 04:20:07;;;;;;;2.97;1.70;;;8.50;99.90;;;;;;5052269;28;20179;-83
2023/05/02 04:22:33;;;;;;;2.97;1.57;;;8.60;99.90;;;;;;5035110;28;20235;-82
2023/05/02 04:24:59;;;;;;;4.73;1.70;;;8.70;99.90;;;;;;5034733;28;20295;-83
2023/05/02 04:27:25;;;;;;;5.22;1.65;;;8.80;99.90;;;;;;5060905;28;20244;-83
2023/05/02 04:29:52;;;;;;;2.47;1.95;;;8.80;99.90;;;;;;5060279;28;20180;-83
2023/05/02 04:32:18;;;;;;;5.80;1.53;;;8.90;99.90;;;;;;5059231;28;20172;-83
2023/05/02 04:34:43;;;;;;;2.28;1.60;;;9.00;99.90;;;;;;5057011;28;20259;-83
2023/05/02 04:37:09;;;;;;;3.17;1.40;;;9.20;99.90;;;;;;5033551;28;20177;-83
2023/05/02 04:39:34;;;;;;;3.70;1.60;;;9.20;99.90;;;;;;5034962;28;20185;-83
2023/05/02 04:42:00;;;;;;;6.05;1.30;;;9.30;99.90;;;;;;5017951;28;20180;-84
2023/05/02 04:44:26;;;;;;;1.20;1.10;;;9.40;99.90;;;;;;5050767;28;20204;-83
2023/05/02 04:46:52;;;;;;;5.63;2.30;;;9.50;99.50;;;;;;5017968;28;20188;-82
2023/05/02 04:49:18;;;;;;;5.50;1.87;;;9.50;99.60;;;;;;5018031;28;20644;-83
2023/05/02 04:51:44;;;;;;;2.33;1.55;;;9.60;99.20;;;;;;5035603;28;20259;-84
2023/05/02 04:54:10;;;;;;;6.50;1.88;;;9.60;98.80;;;;;;5017610;28;20211;-83
2023/05/02 04:56:36;;;;;;;1.83;1.38;;;9.60;99.10;;;;;;5035314;28;20643;-83
2023/05/02 04:59:01;;;;;;;2.65;1.50;;;9.70;98.70;;;;;;5034920;28;20179;-87
2023/05/02 05:01:27;;;;;;;4.22;1.65;;;9.70;99.40;;;;;;5051015;28;20179;-83
2023/05/02 05:03:53;;;;;;;3.20;1.58;;;9.70;99.60;;;;;;5050879;28;20283;-83
2023/05/02 05:06:19;;;;;;;2.25;1.52;;;9.70;98.10;;;;;;5035144;28;20322;-83
2023/05/02 05:08:45;;;;;;;1.60;1.50;;;9.80;98.60;;;;;;5035595;28;20200;-82
2023/05/02 05:11:11;;;;;;;3.83;2.17;;;9.90;98.50;;;;;;5035394;28;20290;-82
2023/05/02 05:13:37;;;;;;;2.35;1.67;;;10.00;96.40;;;;;;5035180;28;20224;-82
2023/05/02 05:16:03;;;;;;;8.60;3.63;;;10.10;96.40;;;;;;5034185;28;20199;-83
2023/05/02 05:18:29;;;;;;;3.80;1.92;;;10.20;96.70;;;;;;5035074;28;20183;-83
2023/05/02 05:20:55;;;;;;;5.07;2.10;;;10.30;96.30;;;;;;5033822;28;20537;-84
2023/05/02 05:23:20;;;;;;;3.97;1.98;;;10.40;95.40;;;;;;5034919;28;20264;-84
2023/05/02 05:25:46;;;;;;;4.25;1.95;;;10.50;94.90;;;;;;5034897;28;20175;-83
2023/05/02 05:28:12;;;;;;;3.08;1.80;;;10.60;94.90;;;;;;5034668;28;20187;-83
2023/05/02 05:30:38;;;;;;;2.60;1.65;;;10.80;95.00;;;;;;5033406;28;20181;-84
2023/05/02 05:33:04;;;;;;;3.08;2.10;;;10.90;93.60;;;;;;5021607;28;20642;-84
2023/05/02 05:35:31;;;;;;;4.13;2.60;;;11.10;92.40;;;;;;5036026;28;20245;-80
2023/05/02 05:37:57;;;;;;;8.88;3.17;;;11.20;91.40;;;;;;5037713;28;20177;-83
2023/05/02 05:40:23;;;;;;;4.22;2.20;;;11.40;91.70;;;;;;5018413;28;20184;-82
2023/05/02 05:42:48;;;;;;;5.03;2.58;;;11.50;90.80;;;;;;5018396;28;20181;-81
2023/05/02 05:45:16;;;;;;;6.10;2.15;;;11.70;90.00;;;;;;5035046;28;20212;-82
2023/05/02 05:47:42;;;;;;;6.15;2.20;;;11.80;89.10;;;;;;5041033;28;20168;-82
2023/05/02 05:50:08;;;;;;;2.80;1.80;;;11.90;87.80;;;;;;5037015;28;20255;-85
2023/05/02 05:52:34;;;;;;;2.03;1.70;;;12.00;88.30;;;;;;5036486;28;20204;-81
2023/05/02 05:54:59;;;;;;;2.55;1.63;;;12.10;86.90;;;;;;5040358;28;20646;-82
2023/05/02 05:57:25;;;;;;;5.07;1.85;;;12.20;85.40;;;;;;5032823;28;20175;-83
2023/05/02 05:59:51;;;;;;;3.03;1.60;;;12.30;85.00;;;;;;5034364;28;20173;-82
2023/05/02 06:02:18;;;;;;;2.65;1.92;;;12.30;83.80;;;;;;5033347;28;20173;-82
2023/05/02 06:04:44;;;;;;;2.90;1.60;;;12.40;83.40;;;;;;5033376;28;20302;-82
2023/05/02 06:07:10;;;;;;;2.70;1.58;;;12.40;83.50;;;;;;5032983;28;20203;-84
2023/05/02 06:09:36;;;;;;;1.77;1.67;;;12.40;83.70;;;;;;5032684;28;20177;-82
2023/05/02 06:12:02;;;;;;;2.25;1.42;;;12.50;83.70;;;;;;5033836;28;20188;-81
2023/05/02 06:14:28;;;;;;;3.85;2.03;;;12.50;83.70;;;;;;5032119;28;20330;-83
2023/05/02 06:16:53;;;;;;;8.18;2.15;;;12.60;83.50;;;;;;5032419;28;20177;-83
2023/05/02 06:19:19;;;;;;;4.75;2.28;;;12.70;83.80;;;;;;5032228;28;20181;-83
2023/05/02 06:21:45;;;;;;;2.65;1.77;;;12.70;84.30;;;;;;5016136;28;20179;-84
2023/05/02 06:24:10;;;;;;;3.00;2.00;;;12.80;82.60;;;;;;5032277;28;20217;-83
2023/05/02 06:26:36;;;;;;;2.08;1.42;;;13.00;82.60;;;;;;5033557;28;20176;-84
2023/05/02 06:29:02;;;;;;;2.67;1.40;;;13.10;81.40;;;;;;5031994;28;20544;-84
2023/05/02 06:31:28;;;;;;;2.90;1.55;;;13.20;80.70;;;;;;5032958;28;20315;-82
2023/05/02 06:33:54;;;;;;;2.08;1.40;;;13.30;80.60;;;;;;5031830;28;20207;-82
2023/05/02 06:36:20;;;;;;;4.15;1.50;;;13.40;80.40;;;;;;5031769;28;20181;-83
2023/05/02 06:38:46;;;;;;;2.63;1.70;;;13.50;79.70;;;;;;5032927;28;20183;-84
2023/05/02 06:41:13;;;;;;;2.83;1.63;;;13.60;78.70;;;;;;5031703;28;20283;-84
2023/05/02 06:43:40;;;;;;;3.97;1.75;;;13.90;77.20;;;;;;5032942;28;20204;-84
2023/05/02 06:46:07;;;;;;;2.08;1.55;;;14.00;78.50;;;;;;5031629;28;20184;-83
2023/05/02 06:48:34;;;;;;;3.63;1.80;;;14.20;76.00;;;;;;5032647;28;20173;-84
2023/05/02 06:51:02;;;;;;;2.90;1.70;;;14.30;76.50;;;;;;5032918;28;20199;-84
2023/05/02 06:53:29;;;;;;;4.05;1.67;;;14.50;75.80;;;;;;5031107;28;20636;-84
2023/05/02 06:55:55;;;;;;;2.08;1.50;;;14.80;73.90;;;;;;5047845;28;20211;-83
2023/05/02 06:58:20;;;;;;;5.68;1.67;;;14.80;72.30;;;;;;5031314;28;20188;-84
2023/05/02 07:00:47;;;;;;;2.25;1.42;;;14.90;72.30;;;;;;5031805;28;20192;-84
2023/05/02 07:03:13;;;;;;;2.92;1.83;;;15.20;71.30;;;;;;5033482;28;20173;-84
2023/05/02 07:05:39;;;;;;;4.07;1.50;;;14.90;71.10;;;;;;5033156;28;20227;-83
2023/05/02 07:08:05;;;;;;;4.90;2.13;;;15.00;71.90;;;;;;5015618;28;20176;-86
2023/05/02 07:10:31;;;;;;;1.77;1.25;;;15.20;70.80;;;;;;5015762;28;20184;-84
2023/05/02 07:12:57;;;;;;;2.47;1.65;;;15.40;71.60;;;;;;5032738;28;20665;-83
2023/05/02 07:15:23;;;;;;;6.53;2.05;;;15.60;71.80;;;;;;5033177;28;20319;-83
2023/05/02 07:17:49;;;;;;;3.10;1.80;;;15.90;70.60;;;;;;4999482;28;20173;-83
2023/05/02 07:20:15;;;;;;;3.40;1.80;;;16.00;70.60;;;;;;5031792;28;20202;-83
2023/05/02 07:22:41;;;;;;;2.42;1.40;;;16.10;68.90;;;;;;5015507;28;20195;-83
2023/05/02 07:25:07;;;;;;;2.70;1.52;;;16.10;69.20;;;;;;5015594;28;20266;-83
2023/05/02 07:27:33;;;;;;;2.13;1.52;;;16.30;70.20;;;;;;5015329;28;20184;-83
2023/05/02 07:29:58;;;;;;;2.13;1.60;;;16.40;68.70;;;;;;5031978;28;20177;-83
2023/05/02 07:32:25;;;;;;;3.10;1.85;;;16.50;67.80;;;;;;5032916;28;20263;-83
2023/05/02 07:34:53;;;;;;;2.38;1.67;;;16.60;67.40;;;;;;5015750;28;20176;-83
2023/05/02 07:37:19;;;;;;;5.28;1.52;;;16.70;66.90;;;;;;5031714;28;20176;-83
2023/05/02 07:39:45;;;;;;;3.00;1.85;;;16.80;66.20;;;;;;5031573;28;20275;-82
2023/05/02 07:42:10;;;;;;;3.88;1.70;;;16.90;66.80;;;;;;5032813;28;20267;-83
2023/05/02 07:44:36;;;;;;;3.50;1.60;;;17.00;65.60;;;;;;5032819;28;20678;-83
2023/05/02 07:47:02;;;;;;;2.17;1.42;;;17.00;66.30;;;;;;5031868;28;20192;-83
2023/05/02 07:49:27;;;;;;;2.63;1.50;;;17.20;66.00;;;;;;5032450;28;20275;-84
2023/05/02 07:51:53;;;;;;;2.15;1.65;;;17.30;64.70;;;;;;5032316;28;20175;-84
2023/05/02 07:54:21;;;;;;;2.40;1.33;;;17.40;65.30;;;;;;5015046;28;20188;-84
2023/05/02 07:56:47;;;;;;;8.88;1.50;;;17.50;64.80;;;;;;5032293;28;20181;-84
2023/05/02 07:59:13;;;;;;;2.85;1.30;;;17.60;65.20;;;;;;5015771;28;20184;-84
2023/05/02 08:01:43;;;;;;;2.35;1.67;;;17.70;64.60;;;;;;5036658;28;20168;-84
2023/05/02 08:04:10;;;;;;;3.10;1.75;;;17.70;64.80;;;;;;5035918;28;20212;-84
2023/05/02 08:06:36;;;;;;;2.90;1.83;;;17.70;63.60;;;;;;5035449;28;20226;-85
2023/05/02 08:09:02;;;;;;;2.05;1.55;;;17.80;65.00;;;;;;5036487;28;20180;-84
2023/05/02 08:11:27;;;;;;;2.70;1.58;;;18.00;64.10;;;;;;5036102;28;20177;-84
2023/05/02 08:13:53;;;;;;;1.98;1.48;;;18.10;63.90;;;;;;5036858;28;20330;-82
2023/05/02 08:16:19;;;;;;;2.90;1.55;;;18.10;63.30;;;;;;5036576;28;20173;-82
2023/05/02 08:18:45;;;;;;;3.50;1.30;;;18.30;63.70;;;;;;5036046;28;20663;-82
2023/05/02 08:21:11;;;;;;;2.45;1.58;;;18.40;62.60;;;;;;5036655;28;20203;-83
2023/05/02 08:23:39;;;;;;;1.60;1.20;;;18.60;62.70;;;;;;5036287;28;20173;-83
2023/05/02 08:26:05;;;;;;;1.52;1.30;;;18.70;62.70;;;;;;5036237;28;20663;-83
2023/05/02 08:28:31;;;;;;;2.35;1.63;;;18.90;62.20;;;;;;5035873;28;20211;-83
2023/05/02 08:30:57;;;;;;;6.97;1.70;;;18.90;60.50;;;;;;5035128;28;20184;-83
2023/05/02 08:33:22;;;;;;;2.03;1.45;;;19.10;62.80;;;;;;5035402;28;20598;-85
2023/05/02 08:35:48;;;;;;;1.58;1.30;;;19.20;60.60;;;;;;5034657;28;20188;-84
2023/05/02 08:38:14;;;;;;;2.33;1.60;;;19.40;62.20;;;;;;5036566;28;20184;-82
2023/05/02 08:40:40;;;;;;;2.28;1.33;;;19.40;59.70;;;;;;5035895;28;20183;-84
2023/05/02 08:43:05;;;;;;;1.77;1.38;;;19.50;61.90;;;;;;5034597;28;20185;-82
2023/05/02 08:45:37;;;;;;;3.85;1.27;;;19.60;60.40;;;;;;5017939;28;20683;-85
2023/05/02 08:48:11;;;;;;;2.78;1.50;;;19.70;61.30;;;;;;5036323;28;20181;-83
2023/05/02 08:50:43;;;;;;;2.17;1.50;;;19.70;60.50;;;;;;5034443;28;20534;-83
2023/05/02 08:53:10;;;;;;;2.05;1.45;;;19.90;60.60;;;;;;5034557;28;20180;-84
2023/05/02 08:55:40;;;;;;;2.10;1.52;;;19.80;58.60;;;;;;5034898;28;20639;-83
2023/05/02 08:58:10;;;;;;;2.90;1.25;;;19.80;61.10;;;;;;5034867;28;20164;-82
2023/05/02 09:00:40;;;;;;;2.42;1.20;;;19.90;60.00;;;;;;5035476;28;20177;-83
2023/05/02 09:03:22;;;;;;;2.28;1.40;;;20.10;61.40;;;;;;5035819;28;20181;-83
2023/05/02 09:05:54;;;;;;;2.30;1.30;;;20.30;61.00;;;;;;5036055;28;20723;-83
2023/05/02 09:08:23;;;;;;;2.70;1.52;;;20.40;59.80;;;;;;5035525;28;20242;-84
2023/05/02 09:10:52;;;;;;;2.88;1.10;;;20.50;58.60;;;;;;5033955;28;20263;-83
2023/05/02 09:13:30;;;;;;;2.05;1.20;;;20.50;55.40;;;;;;5034299;28;20177;-84
2023/05/02 09:16:07;;;;;;;1.13;1.00;;;20.60;52.90;;;;;;5033899;28;20168;-84
2023/05/02 09:18:47;;;;;;;2.03;1.27;;;20.70;52.70;;;;;;5034270;28;20176;-83
2023/05/02 09:21:15;;;;;;;3.83;1.58;;;20.60;52.90;;;;;;5033051;28;20215;-84
2023/05/02 09:23:49;;;;;;;1.92;1.20;;;20.70;52.50;;;;;;5014574;28;20212;-84
2023/05/02 09:26:28;;;;;;;3.22;1.10;;;20.90;53.00;;;;;;5014619;28;20157;-85
2023/05/02 09:28:54;;;;;;;1.30;0.98;;;20.80;53.30;;;;;;5014694;28;20176;-84
2023/05/02 09:31:40;;;;;;;1.48;1.35;;;21.00;54.20;;;;;;5014737;28;20166;-86
2023/05/02 09:34:11;;;;;;;0.82;0.82;;;21.10;53.80;;;;;;5016701;28;20782;-83
2023/05/02 09:36:45;;;;;;;2.28;1.35;;;21.20;54.10;;;;;;5014414;28;20181;-84
2023/05/02 09:39:16;;;;;;;2.85;1.10;;;21.20;54.20;;;;;;5029576;28;20192;-83
2023/05/02 09:41:44;;;;;;;1.48;1.30;;;21.30;55.40;;;;;;5014236;28;20738;-85
2023/05/02 09:44:11;;;;;;;1.20;1.10;;;21.20;54.10;;;;;;5029641;28;20212;-84
2023/05/02 09:46:41;;;;;;;2.85;1.25;;;21.30;54.40;;;;;;5014411;28;20181;-83
2023/05/02 09:49:10;;;;;;;2.88;1.30;;;21.30;56.50;;;;;;5005812;28;20546;-84
2023/05/02 09:51:36;;;;;;;1.63;1.10;;;21.50;55.60;;;;;;5033045;28;20181;-85
2023/05/02 09:54:02;;;;;;;3.38;1.45;;;21.50;55.10;;;;;;5032566;28;20554;-85
2023/05/02 09:56:28;;;;;;;2.20;1.40;;;21.70;55.20;;;;;;5033967;28;20173;-84
2023/05/02 09:59:14;;;;;;;1.85;1.10;;;21.70;54.90;;;;;;5033639;28;20650;-83
2023/05/02 10:01:41;;;;;;;1.67;1.10;;;21.50;54.30;;;;;;5014303;28;20166;-83
2023/05/02 10:04:17;;;;;;;3.35;1.38;;;21.30;54.20;;;;;;5019197;28;20216;-83
2023/05/02 10:06:43;;;;;;;4.32;1.48;;;21.20;55.10;;;;;;5033789;28;20258;-87
2023/05/02 10:09:11;;;;;;;3.85;1.42;;;21.30;55.00;;;;;;5033673;28;20575;-86
2023/05/02 10:11:42;;;;;;;2.40;1.40;;;21.50;55.20;;;;;;5033050;28;20185;-85
2023/05/02 10:14:10;;;;;;;1.65;1.40;;;21.50;54.70;;;;;;5033716;28;20228;-85
2023/05/02 10:16:42;;;;;;;3.60;1.60;;;21.40;54.20;;;;;;5015910;28;20180;-85
2023/05/02 10:19:12;;;;;;;1.35;1.10;;;21.40;54.70;;;;;;5032235;28;20176;-85
2023/05/02 10:21:42;;;;;;;5.65;1.67;;;21.40;54.20;;;;;;5032249;28;20283;-85
2023/05/02 10:24:08;;;;;;;2.72;1.42;;;21.50;54.60;;;;;;5031280;28;20212;-83
2023/05/02 10:26:35;;;;;;;2.08;1.60;;;21.60;54.70;;;;;;5032108;28;20542;-87
2023/05/02 10:29:01;;;;;;;2.05;1.20;;;21.70;54.80;;;;;;5013593;28;20175;-86
2023/05/02 10:31:33;;;;;;;2.40;1.33;;;21.70;53.20;;;;;;5012290;28;20228;-83
2023/05/02 10:34:00;;;;;;;3.67;1.55;;;21.50;53.10;;;;;;5012924;28;20227;-84
2023/05/02 10:36:27;;;;;;;1.77;1.40;;;21.20;54.00;;;;;;5012925;28;20177;-87
2023/05/02 10:38:54;;;;;;;3.80;1.38;;;21.10;54.40;;;;;;5032278;28;20204;-83
2023/05/02 10:41:25;;;;;;;4.18;1.73;;;21.10;54.60;;;;;;5033016;28;20175;-86
2023/05/02 10:43:52;;;;;;;3.58;1.55;;;21.00;55.10;;;;;;5030976;28;20212;-84
2023/05/02 10:46:35;;;;;;;3.65;1.83;;;20.90;55.30;;;;;;5032474;28;20179;-85
2023/05/02 10:49:02;;;;;;;2.20;1.52;;;20.70;54.70;;;;;;5031602;28;20590;-85
2023/05/02 10:51:28;;;;;;;3.30;1.75;;;20.60;55.60;;;;;;5032055;28;20248;-83
2023/05/02 10:54:14;;;;;;;4.35;1.58;;;20.50;54.70;;;;;;5015236;28;20188;-85
2023/05/02 10:57:02;;;;;;;3.67;1.40;;;20.50;55.60;;;;;;5033140;28;20173;-84
2023/05/02 10:59:27;;;;;;;2.47;1.33;;;20.50;56.30;;;;;;5031743;28;20187;-83
2023/05/02 11:01:53;;;;;;;2.47;1.60;;;20.60;56.80;;;;;;5032547;28;20173;-83
2023/05/02 11:04:19;;;;;;;1.70;1.30;;;20.70;55.90;;;;;;5032356;28;20204;-83
2023/05/02 11:07:00;;;;;;;1.42;1.23;;;20.80;56.00;;;;;;5032673;28;20259;-84
2023/05/02 11:09:29;;;;;;;2.80;1.55;;;21.00;56.20;;;;;;5032709;28;20819;-83
2023/05/02 11:11:56;;;;;;;2.35;1.88;;;21.20;55.70;;;;;;5032525;28;20176;-83
2023/05/02 11:14:25;;;;;;;1.70;1.48;;;21.10;55.30;;;;;;5042972;28;20245;-84
2023/05/02 11:16:59;;;;;;;2.13;1.60;;;21.00;55.80;;;;;;5035430;28;20509;-84
2023/05/02 11:19:26;;;;;;;3.08;1.50;;;21.00;55.60;;;;;;5053257;28;20552;-84
2023/05/02 11:21:53;;;;;;;2.72;1.80;;;21.00;56.20;;;;;;5052801;28;20207;-84
2023/05/02 11:24:41;;;;;;;1.90;1.50;;;20.90;56.90;;;;;;5035441;28;20211;-83
2023/05/02 11:27:28;;;;;;;2.63;1.55;;;21.00;56.30;;;;;;5052669;28;20174;-84
2023/05/02 11:29:58;;;;;;;2.70;1.55;;;20.90;56.90;;;;;;5053780;28;20575;-84
2023/05/02 11:32:45;;;;;;;3.05;1.20;;;21.30;56.30;;;;;;5035390;28;20653;-84
2023/05/02 11:35:22;;;;;;;3.85;1.65;;;20.70;55.70;;;;;;5037931;28;20179;-83
2023/05/02 11:37:59;;;;;;;3.90;1.20;;;20.60;56.20;;;;;;5053227;28;20176;-84
2023/05/02 11:40:27;;;;;;;2.40;1.38;;;20.60;55.30;;;;;;5035498;28;20176;-84
2023/05/02 11:42:53;;;;;;;2.28;1.45;;;20.60;56.80;;;;;;5053570;28;20210;-83
2023/05/02 11:45:22;;;;;;;2.40;1.10;;;20.70;56.80;;;;;;5018901;28;20204;-84
2023/05/02 11:47:50;;;;;;;2.42;1.30;;;20.70;56.50;;;;;;5034947;28;20182;-84
2023/05/02 11:50:17;;;;;;;1.33;1.20;;;20.70;56.20;;;;;;5052787;28;20241;-85
2023/05/02 11:52:44;;;;;;;1.92;1.30;;;20.60;55.30;;;;;;5036240;28;20199;-82
2023/05/02 11:55:11;;;;;;;2.22;1.60;;;20.50;55.80;;;;;;5035869;28;20267;-83
2023/05/02 11:57:38;;;;;;;3.15;1.67;;;20.60;56.20;;;;;;5023054;28;20313;-84
2023/05/02 12:00:04;;;;;;;1.95;1.60;;;20.50;56.50;;;;;;5040657;28;20549;-81
2023/05/02 12:02:39;;;;;;;1.52;1.35;;;20.60;56.20;;;;;;5041285;28;20226;-84
2023/05/02 12:05:09;;;;;;;1.23;1.10;;;20.60;57.10;;;;;;5032736;28;20200;-83
2023/05/02 12:07:38;;;;;;;1.63;1.40;;;20.70;56.30;;;;;;5027477;28;20235;-84
2023/05/02 12:10:09;;;;;;;1.73;1.60;;;20.70;56.70;;;;;;5037531;28;20187;-85
2023/05/02 12:12:37;;;;;;;4.45;2.78;;;20.80;56.50;;;;;;5018117;28;20176;-83
2023/05/02 12:15:08;;;;;;;2.97;1.33;;;20.90;56.20;;;;;;5028699;28;20272;-83
2023/05/02 12:17:38;;;;;;;2.40;1.55;;;21.00;55.90;;;;;;5031579;28;20600;-83
2023/05/02 12:20:06;;;;;;;2.03;1.42;;;21.00;55.50;;;;;;5031805;28;20635;-84
2023/05/02 12:22:32;;;;;;;2.00;1.52;;;21.10;56.20;;;;;;5031243;28;20268;-83
2023/05/02 12:24:59;;;;;;;1.58;1.20;;;21.10;55.70;;;;;;5032647;28;20226;-85
2023/05/02 12:27:26;;;;;;;2.65;1.60;;;21.10;55.70;;;;;;5031313;28;20268;-85
2023/05/02 12:29:52;;;;;;;3.58;1.50;;;21.10;55.60;;;;;;5032243;28;20187;-84
2023/05/02 12:32:35;;;;;;;5.38;1.63;;;21.10;55.60;;;;;;5031008;28;20173;-85
2023/05/02 12:35:02;;;;;;;1.75;1.38;;;21.30;56.90;;;;;;5030125;28;20181;-86
2023/05/02 12:37:28;;;;;;;1.70;1.60;;;21.30;55.80;;;;;;5030079;28;20199;-84
2023/05/02 12:39:55;;;;;;;1.45;1.20;;;21.40;55.90;;;;;;5030367;28;20184;-84
2023/05/02 12:42:23;;;;;;;2.15;1.35;;;21.40;56.40;;;;;;5031419;28;20181;-83
2023/05/02 12:44:52;;;;;;;2.55;1.77;;;21.40;55.90;;;;;;5047023;28;20244;-84
2023/05/02 12:47:21;;;;;;;2.17;1.40;;;21.40;55.90;;;;;;5032138;28;20537;-85
2023/05/02 12:49:57;;;;;;;4.57;1.77;;;21.40;57.10;;;;;;5035309;28;20268;-85
2023/05/02 12:52:50;;;;;;;3.92;1.48;;;21.60;56.70;;;;;;5034772;28;20987;-83
2023/05/02 12:55:19;;;;;;;3.95;1.50;;;21.70;56.30;;;;;;5034799;28;20180;-84
2023/05/02 12:57:46;;;;;;;2.22;1.70;;;21.80;56.50;;;;;;5033995;28;20177;-84
2023/05/02 13:00:12;;;;;;;2.03;1.83;;;22.00;56.00;;;;;;5034558;28;20195;-86